Nearby METAR Reports

 

EBBR - Brussels Nationa, Belgium
Distance from station: W 14km
Updated: 18/04/2021 01:50
Helder
Helder
 Wind van NNW
Wind: NNW 6 km/h
Temperatuur: 4°C
Dauwpunt: 1°C
Vochtigheid: 81%
Barometer: 1024 hPa
Overzicht: Helder
Visibility: greater than 10 km
2021/04/17 23:50 EBBR 172350Z 33003KT CAVOK 04/01 Q1024 NOSIG
EBBE - Beauvechain (baf, Belgium
Distance from station: ZZO 16km
Updated: 18/04/2021 01:25
Few Clouds
Few Clouds
 Wind van N
Wind: N 6 km/h
Temperatuur: 5°C
Dauwpunt: 1°C
Vochtigheid: 76%
Barometer: 1024 hPa
Clouds: Few Clouds
Visibility: 10 km
Cloud details: Few Clouds 1981 m
2021/04/17 23:25 EBBE 172325Z AUTO 35003KT 9999 FEW065/// 05/01 Q1024 BLU
 
EBDT - Schaffen, Belgium
Distance from station: ONO 30km
Updated: 18/04/2021 01:25
Meestal bewolkt
Meestal bewolkt
 Wind van N
Wind: N 11 km/h
Temperatuur: 5°C
Wind Chill: 2°C
Dauwpunt: 0°C
Vochtigheid: 70%
Barometer: 1024 hPa
Clouds: Meestal bewolkt
Visibility: 10 km
Cloud details: Few Clouds 3962 m
Meestal bewolkt 6706 m
2021/04/17 23:25 EBDT 172325Z AUTO 36006KT 9999 FEW130/// BKN220/// 05/00 Q1024 BLU
EBAW - Antwerp/Deurne, Belgium
Distance from station: NNW 38km
Updated: 18/04/2021 01:50
Helder
Helder
 Wind van N
Wind: N 9 km/h
Temperatuur: 6°C
Wind Chill: 4°C
Dauwpunt: 2°C
Vochtigheid: 76%
Barometer: 1024 hPa
Overzicht: Helder
Visibility: greater than 10 km
2021/04/17 23:50 EBAW 172350Z AUTO 35005KT CAVOK 06/02 Q1024